This is the latest recevied weather packets stored in our database for station/object SR4DIG-13. If no packets are shown the sender has not sent any weather packets the latest 1 day(s).
| Time | Temp. | Humidity | Pressure | Rain* | Wind** | Luminosity | Snow |
|---|---|---|---|---|---|---|---|
| 1777996021 | 17.22° C | 77% | 1006.8 hPa | 2.29 mm | 0 m/s | - | - |
| 1777995402 | 17.22° C | 77% | 1006.9 hPa | 2.29 mm | 0 m/s | - | - |
| 1777995101 | 17.22° C | 77% | 1006.9 hPa | 2.29 mm | 0.89 m/s, 45° | - | - |
| 1777994800 | 17.22° C | 77% | 1007 hPa | 2.29 mm | 0 m/s | - | - |
| 1777994499 | 17.22° C | 76% | 1007.3 hPa | 2.29 mm | 0.89 m/s, 45° | - | - |
| 1777994198 | 17.22° C | 76% | 1007.3 hPa | 2.29 mm | 0 m/s | - | - |
| 1777993897 | 17.78° C | 73% | 1007.9 hPa | 2.29 mm | 0 m/s | - | - |
| 1777993597 | 18.89° C | 67% | 1006.8 hPa | 0.51 mm | 0 m/s | - | - |
| 1777992958 | 18.89° C | 67% | 1007.4 hPa | 0.51 mm | 0 m/s | - | - |
| 1777992657 | 18.89° C | 68% | 1007.5 hPa | 0.51 mm | 0 m/s | - | - |
| 1777992356 | 18.89° C | 68% | 1007.5 hPa | 0.51 mm | 0 m/s | - | - |
| 1777992055 | 18.89° C | 68% | 1007 hPa | 0.51 mm | 0 m/s | - | - |
| 1777991754 | 18.89° C | 68% | 1007 hPa | 0.51 mm | 0 m/s | - | - |
| 1777991453 | 18.89° C | 68% | 1007.1 hPa | 0.51 mm | 0 m/s | - | - |
| 1777991152 | 19.44° C | 68% | 1007.1 hPa | 0.51 mm | 0 m/s | - | - |
| 1777990851 | 20.56° C | 64% | 1007 hPa | 0.51 mm | 0 m/s | - | - |
| 1777990551 | 20.56° C | 64% | 1007.1 hPa | 0.51 mm | 0 m/s | - | - |
| 1777990250 | 21.11° C | 62% | 1007.1 hPa | 0.51 mm | 0 m/s | - | - |
| 1777989648 | 23.89° C | 47% | 1007.3 hPa | 0 mm | 0 m/s | - | - |
| 1777989347 | 24.44° C | 46% | 1007.2 hPa | 0 mm | 0 m/s | - | - |
| 1777989046 | 24.44° C | 45% | 1007.3 hPa | 0 mm | 0 m/s | - | - |
| 1777988745 | 24.44° C | 44% | 1007.3 hPa | 0 mm | 0 m/s | - | - |
| 1777988444 | 24.44° C | 44% | 1007.3 hPa | 0 mm | 0 m/s | - | - |
| 1777988143 | 24.44° C | 44% | 1007.3 hPa | 0 mm | 0 m/s | - | - |
| 1777987842 | 24.44° C | 44% | 1007.4 hPa | 0 mm | 0 m/s | - | - |
* Rain since midnight (hover to see other rain measurements)
** Current wind speed in m/s (hover to see current wind gust speed)